Terminal Aerodrome Forecast
Issued by NWS Wichita, KS

Home | Current Version | Previous Version | Graphics & Text | Print | Product List | Glossary On
Versions: 1 2 3 4 5 6 7 8 9 10 11 12 13
526
FTUS43 KICT 031138
TAFICT
TAF
KICT 031138Z 0312/0412 04005KT P6SM VCSH OVC070
      TEMPO 0315/0319 5SM -RA OVC035
     FM031900 10006KT 5SM BR VCSH OVC035
     FM040100 00000KT 3SM BR VCSH OVC015
     FM040400 00000KT 2SM -RA OVC010
     FM040600 00000KT P6SM OVC008=

USA.gov is the U.S. government's official web portal to all federal, state and local government web resources and services.